Lake Lincoln, Indiana
Current Conditions -  °F | °C
As of 9:35 AM on Saturday 22 Nov 2014 (Local Time) from KHNB Reporting Station
Scattered Clouds Scattered Clouds  
Wind Chill: 52°   Ceiling: Unl
Heat Index: 52°   Visibility: 10mi
Dew Point: 39°   Wind: 16mph
Humidity: 62%   Direction: 190°S
Pressure: 30.24"   Gusts: NA
Location:  38.1283°N, 86.9862°W
Report Text: KHNB 221535Z AUTO 19014KT 10SM SCT100 11/04 A3024 RMK AO1
Loading
Personal Weather Stations






























Interactive Weather Map New forecast layout! Learn more

10-Day Weather Forecast

Advertisements
Track Severe Weather on mobile